sensor_id;sensor_type;location;lat;lon;timestamp;P1;durP1;ratioP1;P2;durP2;ratioP2
54201;SDS011;40108;53.152;5.844;2022-10-16T00:01:16;9.02;;;1.33;;
54201;SDS011;40108;53.152;5.844;2022-10-16T00:03:46;9.20;;;1.55;;
54201;SDS011;40108;53.152;5.844;2022-10-16T00:06:21;5.68;;;1.00;;
54201;SDS011;40108;53.152;5.844;2022-10-16T00:08:47;5.57;;;1.05;;
54201;SDS011;40108;53.152;5.844;2022-10-16T00:13:50;13.57;;;1.40;;
54201;SDS011;40108;53.152;5.844;2022-10-16T00:16:17;6.57;;;1.20;;
54201;SDS011;40108;53.152;5.844;2022-10-16T00:18:44;8.10;;;1.35;;
54201;SDS011;40108;53.152;5.844;2022-10-16T00:21:14;8.45;;;1.38;;
54201;SDS011;40108;53.152;5.844;2022-10-16T00:23:42;6.60;;;1.35;;
54201;SDS011;40108;53.152;5.844;2022-10-16T00:26:09;9.93;;;1.75;;
54201;SDS011;40108;53.152;5.844;2022-10-16T00:28:39;7.33;;;1.57;;
54201;SDS011;40108;53.152;5.844;2022-10-16T00:31:06;5.95;;;0.98;;
54201;SDS011;40108;53.152;5.844;2022-10-16T00:33:33;6.38;;;0.98;;
54201;SDS011;40108;53.152;5.844;2022-10-16T00:35:59;7.57;;;1.73;;
54201;SDS011;40108;53.152;5.844;2022-10-16T00:38:26;5.57;;;0.90;;
54201;SDS011;40108;53.152;5.844;2022-10-16T00:40:58;3.70;;;0.98;;
54201;SDS011;40108;53.152;5.844;2022-10-16T00:46:03;8.85;;;1.10;;
54201;SDS011;40108;53.152;5.844;2022-10-16T00:48:34;5.70;;;0.90;;
54201;SDS011;40108;53.152;5.844;2022-10-16T00:51:00;4.22;;;0.90;;
54201;SDS011;40108;53.152;5.844;2022-10-16T00:53:26;8.02;;;0.90;;
54201;SDS011;40108;53.152;5.844;2022-10-16T00:55:53;6.43;;;0.95;;
54201;SDS011;40108;53.152;5.844;2022-10-16T00:58:19;3.40;;;0.95;;
54201;SDS011;40108;53.152;5.844;2022-10-16T01:00:45;5.53;;;1.08;;
54201;SDS011;40108;53.152;5.844;2022-10-16T01:03:25;6.05;;;0.90;;
54201;SDS011;40108;53.152;5.844;2022-10-16T01:05:57;6.38;;;0.98;;
54201;SDS011;40108;53.152;5.844;2022-10-16T01:08:27;2.97;;;0.83;;
54201;SDS011;40108;53.152;5.844;2022-10-16T01:11:23;5.35;;;1.05;;
54201;SDS011;40108;53.152;5.844;2022-10-16T01:14:02;3.63;;;0.80;;
54201;SDS011;40108;53.152;5.844;2022-10-16T01:16:40;3.90;;;1.23;;
54201;SDS011;40108;53.152;5.844;2022-10-16T01:19:12;6.40;;;0.93;;
54201;SDS011;40108;53.152;5.844;2022-10-16T01:21:44;5.40;;;1.10;;
54201;SDS011;40108;53.152;5.844;2022-10-16T01:24:17;4.07;;;0.90;;
54201;SDS011;40108;53.152;5.844;2022-10-16T01:32:11;3.95;;;1.00;;
54201;SDS011;40108;53.152;5.844;2022-10-16T01:35:11;5.40;;;1.15;;
54201;SDS011;40108;53.152;5.844;2022-10-16T01:40:28;5.28;;;1.05;;
54201;SDS011;40108;53.152;5.844;2022-10-16T01:42:58;6.32;;;1.50;;
54201;SDS011;40108;53.152;5.844;2022-10-16T01:45:29;9.45;;;1.13;;
54201;SDS011;40108;53.152;5.844;2022-10-16T01:47:57;8.13;;;1.38;;
54201;SDS011;40108;53.152;5.844;2022-10-16T01:50:33;5.63;;;1.13;;
54201;SDS011;40108;53.152;5.844;2022-10-16T01:53:03;6.32;;;1.25;;
54201;SDS011;40108;53.152;5.844;2022-10-16T01:55:35;5.15;;;1.08;;
54201;SDS011;40108;53.152;5.844;2022-10-16T01:58:08;3.75;;;1.13;;
54201;SDS011;40108;53.152;5.844;2022-10-16T02:00:37;6.80;;;1.65;;
54201;SDS011;40108;53.152;5.844;2022-10-16T02:03:05;9.63;;;1.30;;
54201;SDS011;40108;53.152;5.844;2022-10-16T02:05:34;5.13;;;1.52;;
54201;SDS011;40108;53.152;5.844;2022-10-16T02:08:06;4.70;;;1.38;;
54201;SDS011;40108;53.152;5.844;2022-10-16T02:10:32;5.20;;;1.17;;
54201;SDS011;40108;53.152;5.844;2022-10-16T02:13:04;6.25;;;1.45;;
54201;SDS011;40108;53.152;5.844;2022-10-16T02:15:37;4.75;;;1.30;;
54201;SDS011;40108;53.152;5.844;2022-10-16T02:18:06;3.92;;;1.27;;
54201;SDS011;40108;53.152;5.844;2022-10-16T02:20:36;4.97;;;1.30;;
54201;SDS011;40108;53.152;5.844;2022-10-16T02:23:08;8.20;;;1.40;;
54201;SDS011;40108;53.152;5.844;2022-10-16T02:25:43;2.08;;;1.13;;
54201;SDS011;40108;53.152;5.844;2022-10-16T02:28:16;4.35;;;1.30;;
54201;SDS011;40108;53.152;5.844;2022-10-16T02:31:06;4.88;;;1.48;;
54201;SDS011;40108;53.152;5.844;2022-10-16T02:33:36;5.32;;;1.10;;
54201;SDS011;40108;53.152;5.844;2022-10-16T02:36:05;3.00;;;1.20;;
54201;SDS011;40108;53.152;5.844;2022-10-16T02:38:31;5.25;;;1.20;;
54201;SDS011;40108;53.152;5.844;2022-10-16T02:40:58;7.15;;;1.35;;
54201;SDS011;40108;53.152;5.844;2022-10-16T02:43:24;3.97;;;1.38;;
54201;SDS011;40108;53.152;5.844;2022-10-16T02:45:50;4.75;;;1.08;;
54201;SDS011;40108;53.152;5.844;2022-10-16T02:48:16;4.25;;;1.38;;
54201;SDS011;40108;53.152;5.844;2022-10-16T02:50:42;5.90;;;1.48;;
54201;SDS011;40108;53.152;5.844;2022-10-16T02:53:07;3.67;;;1.20;;
54201;SDS011;40108;53.152;5.844;2022-10-16T02:55:33;4.25;;;1.30;;
54201;SDS011;40108;53.152;5.844;2022-10-16T02:57:59;3.10;;;1.30;;
54201;SDS011;40108;53.152;5.844;2022-10-16T03:00:24;2.70;;;1.10;;
54201;SDS011;40108;53.152;5.844;2022-10-16T03:02:50;6.13;;;1.25;;
54201;SDS011;40108;53.152;5.844;2022-10-16T03:05:16;7.35;;;1.42;;
54201;SDS011;40108;53.152;5.844;2022-10-16T03:07:42;5.13;;;1.52;;
54201;SDS011;40108;53.152;5.844;2022-10-16T03:10:07;3.97;;;1.17;;
54201;SDS011;40108;53.152;5.844;2022-10-16T03:12:33;4.22;;;1.35;;
54201;SDS011;40108;53.152;5.844;2022-10-16T03:14:59;5.68;;;1.48;;
54201;SDS011;40108;53.152;5.844;2022-10-16T03:17:25;5.68;;;1.35;;
54201;SDS011;40108;53.152;5.844;2022-10-16T03:19:51;4.93;;;1.15;;
54201;SDS011;40108;53.152;5.844;2022-10-16T03:22:17;3.50;;;0.93;;
54201;SDS011;40108;53.152;5.844;2022-10-16T03:24:43;6.80;;;1.20;;
54201;SDS011;40108;53.152;5.844;2022-10-16T03:27:08;5.90;;;1.23;;
54201;SDS011;40108;53.152;5.844;2022-10-16T03:29:34;6.18;;;1.10;;
54201;SDS011;40108;53.152;5.844;2022-10-16T03:32:00;4.03;;;1.30;;
54201;SDS011;40108;53.152;5.844;2022-10-16T03:34:26;3.63;;;1.10;;
54201;SDS011;40108;53.152;5.844;2022-10-16T03:36:52;2.92;;;1.00;;
54201;SDS011;40108;53.152;5.844;2022-10-16T03:39:18;3.28;;;0.80;;
54201;SDS011;40108;53.152;5.844;2022-10-16T03:41:44;5.40;;;1.10;;
54201;SDS011;40108;53.152;5.844;2022-10-16T03:44:11;2.40;;;1.10;;
54201;SDS011;40108;53.152;5.844;2022-10-16T03:46:37;3.65;;;1.00;;
54201;SDS011;40108;53.152;5.844;2022-10-16T03:49:03;3.58;;;0.98;;
54201;SDS011;40108;53.152;5.844;2022-10-16T03:51:29;8.32;;;1.52;;
54201;SDS011;40108;53.152;5.844;2022-10-16T03:53:54;5.95;;;1.05;;
54201;SDS011;40108;53.152;5.844;2022-10-16T03:56:20;4.28;;;1.00;;
54201;SDS011;40108;53.152;5.844;2022-10-16T03:58:46;3.45;;;1.02;;
54201;SDS011;40108;53.152;5.844;2022-10-16T04:01:11;7.95;;;1.10;;
54201;SDS011;40108;53.152;5.844;2022-10-16T04:03:37;5.82;;;1.75;;
54201;SDS011;40108;53.152;5.844;2022-10-16T04:06:03;4.18;;;1.20;;
54201;SDS011;40108;53.152;5.844;2022-10-16T04:08:29;2.42;;;0.90;;
54201;SDS011;40108;53.152;5.844;2022-10-16T04:10:54;4.63;;;1.30;;
54201;SDS011;40108;53.152;5.844;2022-10-16T04:13:20;3.05;;;1.00;;
54201;SDS011;40108;53.152;5.844;2022-10-16T04:15:46;5.85;;;1.45;;
54201;SDS011;40108;53.152;5.844;2022-10-16T04:18:12;4.50;;;1.35;;
54201;SDS011;40108;53.152;5.844;2022-10-16T04:20:37;5.20;;;1.27;;
54201;SDS011;40108;53.152;5.844;2022-10-16T04:23:03;5.25;;;1.00;;
54201;SDS011;40108;53.152;5.844;2022-10-16T04:25:29;3.47;;;1.13;;
54201;SDS011;40108;53.152;5.844;2022-10-16T04:27:56;1.55;;;1.13;;
54201;SDS011;40108;53.152;5.844;2022-10-16T04:30:22;3.50;;;1.25;;
54201;SDS011;40108;53.152;5.844;2022-10-16T04:32:51;9.10;;;1.45;;
54201;SDS011;40108;53.152;5.844;2022-10-16T04:35:18;5.85;;;1.25;;
54201;SDS011;40108;53.152;5.844;2022-10-16T04:37:44;4.70;;;1.00;;
54201;SDS011;40108;53.152;5.844;2022-10-16T04:40:10;5.38;;;1.15;;
54201;SDS011;40108;53.152;5.844;2022-10-16T04:42:37;6.78;;;1.25;;
54201;SDS011;40108;53.152;5.844;2022-10-16T04:45:03;4.10;;;1.25;;
54201;SDS011;40108;53.152;5.844;2022-10-16T04:47:30;4.63;;;1.08;;
54201;SDS011;40108;53.152;5.844;2022-10-16T04:49:56;3.03;;;1.10;;
54201;SDS011;40108;53.152;5.844;2022-10-16T04:52:22;4.90;;;1.25;;
54201;SDS011;40108;53.152;5.844;2022-10-16T04:54:49;6.13;;;1.40;;
54201;SDS011;40108;53.152;5.844;2022-10-16T04:57:16;2.22;;;1.10;;
54201;SDS011;40108;53.152;5.844;2022-10-16T04:59:42;5.43;;;1.50;;
54201;SDS011;40108;53.152;5.844;2022-10-16T05:02:07;5.50;;;1.20;;
54201;SDS011;40108;53.152;5.844;2022-10-16T05:04:33;4.28;;;1.20;;
54201;SDS011;40108;53.152;5.844;2022-10-16T05:06:59;2.30;;;1.10;;
54201;SDS011;40108;53.152;5.844;2022-10-16T05:09:25;7.13;;;1.73;;
54201;SDS011;40108;53.152;5.844;2022-10-16T05:11:50;5.35;;;2.20;;
54201;SDS011;40108;53.152;5.844;2022-10-16T05:14:16;6.47;;;2.10;;
54201;SDS011;40108;53.152;5.844;2022-10-16T05:16:42;3.10;;;1.92;;
54201;SDS011;40108;53.152;5.844;2022-10-16T05:19:08;8.00;;;2.20;;
54201;SDS011;40108;53.152;5.844;2022-10-16T05:21:33;2.92;;;1.98;;
54201;SDS011;40108;53.152;5.844;2022-10-16T05:23:59;5.22;;;1.83;;
54201;SDS011;40108;53.152;5.844;2022-10-16T05:26:26;5.65;;;2.15;;
54201;SDS011;40108;53.152;5.844;2022-10-16T05:28:52;3.90;;;2.03;;
54201;SDS011;40108;53.152;5.844;2022-10-16T05:31:17;6.18;;;2.50;;
54201;SDS011;40108;53.152;5.844;2022-10-16T05:33:43;6.47;;;2.72;;
54201;SDS011;40108;53.152;5.844;2022-10-16T05:36:09;5.25;;;1.88;;
54201;SDS011;40108;53.152;5.844;2022-10-16T05:38:35;5.53;;;2.35;;
54201;SDS011;40108;53.152;5.844;2022-10-16T05:41:02;3.15;;;2.08;;
54201;SDS011;40108;53.152;5.844;2022-10-16T05:43:29;7.70;;;2.58;;
54201;SDS011;40108;53.152;5.844;2022-10-16T05:46:00;4.70;;;2.00;;
54201;SDS011;40108;53.152;5.844;2022-10-16T05:48:27;5.22;;;2.40;;
54201;SDS011;40108;53.152;5.844;2022-10-16T05:51:01;5.18;;;2.30;;
54201;SDS011;40108;53.152;5.844;2022-10-16T05:53:30;5.78;;;2.30;;
54201;SDS011;40108;53.152;5.844;2022-10-16T05:55:57;7.55;;;2.03;;
54201;SDS011;40108;53.152;5.844;2022-10-16T05:58:24;3.65;;;2.05;;
54201;SDS011;40108;53.152;5.844;2022-10-16T06:00:54;8.38;;;2.78;;
54201;SDS011;40108;53.152;5.844;2022-10-16T06:03:24;6.25;;;2.45;;
54201;SDS011;40108;53.152;5.844;2022-10-16T06:05:50;4.60;;;1.80;;
54201;SDS011;40108;53.152;5.844;2022-10-16T06:08:17;5.32;;;2.60;;
54201;SDS011;40108;53.152;5.844;2022-10-16T06:10:44;5.38;;;1.75;;
54201;SDS011;40108;53.152;5.844;2022-10-16T06:13:11;4.97;;;1.65;;
54201;SDS011;40108;53.152;5.844;2022-10-16T06:15:38;5.55;;;2.45;;
54201;SDS011;40108;53.152;5.844;2022-10-16T06:18:04;8.90;;;2.00;;
54201;SDS011;40108;53.152;5.844;2022-10-16T06:20:30;5.65;;;2.08;;
54201;SDS011;40108;53.152;5.844;2022-10-16T06:22:56;6.38;;;1.88;;
54201;SDS011;40108;53.152;5.844;2022-10-16T06:25:22;6.90;;;2.10;;
54201;SDS011;40108;53.152;5.844;2022-10-16T06:27:48;8.13;;;1.83;;
54201;SDS011;40108;53.152;5.844;2022-10-16T06:30:13;6.10;;;1.80;;
54201;SDS011;40108;53.152;5.844;2022-10-16T06:32:39;7.03;;;2.13;;
54201;SDS011;40108;53.152;5.844;2022-10-16T06:35:05;7.85;;;1.63;;
54201;SDS011;40108;53.152;5.844;2022-10-16T06:37:31;3.90;;;1.45;;
54201;SDS011;40108;53.152;5.844;2022-10-16T06:39:56;6.15;;;1.90;;
54201;SDS011;40108;53.152;5.844;2022-10-16T06:42:22;3.78;;;1.70;;
54201;SDS011;40108;53.152;5.844;2022-10-16T06:44:48;9.15;;;2.00;;
54201;SDS011;40108;53.152;5.844;2022-10-16T06:47:13;7.05;;;1.70;;
54201;SDS011;40108;53.152;5.844;2022-10-16T06:49:39;8.65;;;1.90;;
54201;SDS011;40108;53.152;5.844;2022-10-16T06:52:05;7.03;;;1.77;;
54201;SDS011;40108;53.152;5.844;2022-10-16T06:54:30;7.90;;;2.20;;
54201;SDS011;40108;53.152;5.844;2022-10-16T06:56:56;7.30;;;2.28;;
54201;SDS011;40108;53.152;5.844;2022-10-16T06:59:22;7.35;;;2.33;;
54201;SDS011;40108;53.152;5.844;2022-10-16T07:01:48;9.48;;;2.33;;
54201;SDS011;40108;53.152;5.844;2022-10-16T07:04:13;4.82;;;1.67;;
54201;SDS011;40108;53.152;5.844;2022-10-16T07:06:39;4.15;;;1.50;;
54201;SDS011;40108;53.152;5.844;2022-10-16T07:09:06;5.78;;;1.77;;
54201;SDS011;40108;53.152;5.844;2022-10-16T07:11:34;5.00;;;1.92;;
54201;SDS011;40108;53.152;5.844;2022-10-16T07:14:02;4.72;;;1.25;;
54201;SDS011;40108;53.152;5.844;2022-10-16T07:16:31;5.25;;;2.20;;
54201;SDS011;40108;53.152;5.844;2022-10-16T07:18:58;8.98;;;2.22;;
54201;SDS011;40108;53.152;5.844;2022-10-16T07:21:26;7.20;;;1.90;;
54201;SDS011;40108;53.152;5.844;2022-10-16T07:23:54;4.70;;;1.50;;
54201;SDS011;40108;53.152;5.844;2022-10-16T07:26:24;2.58;;;1.42;;
54201;SDS011;40108;53.152;5.844;2022-10-16T07:28:51;4.78;;;2.10;;
54201;SDS011;40108;53.152;5.844;2022-10-16T07:31:18;4.07;;;1.70;;
54201;SDS011;40108;53.152;5.844;2022-10-16T07:33:45;6.28;;;2.20;;
54201;SDS011;40108;53.152;5.844;2022-10-16T07:36:13;6.00;;;2.47;;
54201;SDS011;40108;53.152;5.844;2022-10-16T07:38:40;9.65;;;2.83;;
54201;SDS011;40108;53.152;5.844;2022-10-16T07:41:07;10.85;;;2.92;;
54201;SDS011;40108;53.152;5.844;2022-10-16T07:43:36;7.15;;;3.20;;
54201;SDS011;40108;53.152;5.844;2022-10-16T07:46:02;7.88;;;3.47;;
54201;SDS011;40108;53.152;5.844;2022-10-16T07:48:30;7.45;;;3.05;;
54201;SDS011;40108;53.152;5.844;2022-10-16T07:50:58;6.03;;;3.58;;
54201;SDS011;40108;53.152;5.844;2022-10-16T07:53:25;9.18;;;2.97;;
54201;SDS011;40108;53.152;5.844;2022-10-16T07:55:50;9.00;;;2.97;;
54201;SDS011;40108;53.152;5.844;2022-10-16T07:58:16;9.02;;;2.70;;
54201;SDS011;40108;53.152;5.844;2022-10-16T08:00:42;3.95;;;2.28;;
54201;SDS011;40108;53.152;5.844;2022-10-16T08:03:08;6.30;;;2.08;;
54201;SDS011;40108;53.152;5.844;2022-10-16T08:05:33;6.88;;;2.40;;
54201;SDS011;40108;53.152;5.844;2022-10-16T08:08:00;6.38;;;1.45;;
54201;SDS011;40108;53.152;5.844;2022-10-16T08:10:27;5.57;;;1.70;;
54201;SDS011;40108;53.152;5.844;2022-10-16T08:12:53;5.80;;;1.85;;
54201;SDS011;40108;53.152;5.844;2022-10-16T08:15:19;6.35;;;1.75;;
54201;SDS011;40108;53.152;5.844;2022-10-16T08:17:59;6.43;;;1.55;;
54201;SDS011;40108;53.152;5.844;2022-10-16T08:20:27;6.80;;;1.58;;
54201;SDS011;40108;53.152;5.844;2022-10-16T08:22:53;8.70;;;1.70;;
54201;SDS011;40108;53.152;5.844;2022-10-16T08:25:20;6.05;;;1.58;;
54201;SDS011;40108;53.152;5.844;2022-10-16T08:27:46;7.32;;;2.40;;
54201;SDS011;40108;53.152;5.844;2022-10-16T08:30:12;8.25;;;2.05;;
54201;SDS011;40108;53.152;5.844;2022-10-16T08:32:39;7.65;;;1.60;;
54201;SDS011;40108;53.152;5.844;2022-10-16T08:35:07;6.38;;;1.70;;
54201;SDS011;40108;53.152;5.844;2022-10-16T08:37:34;8.00;;;1.75;;
54201;SDS011;40108;53.152;5.844;2022-10-16T08:40:00;9.40;;;2.20;;
54201;SDS011;40108;53.152;5.844;2022-10-16T08:45:08;6.70;;;2.33;;
54201;SDS011;40108;53.152;5.844;2022-10-16T08:50:58;15.40;;;3.13;;
54201;SDS011;40108;53.152;5.844;2022-10-16T08:53:29;7.60;;;2.00;;
54201;SDS011;40108;53.152;5.844;2022-10-16T08:55:56;11.65;;;2.33;;
54201;SDS011;40108;53.152;5.844;2022-10-16T08:58:27;9.75;;;2.13;;
54201;SDS011;40108;53.152;5.844;2022-10-16T09:00:59;10.32;;;2.08;;
54201;SDS011;40108;53.152;5.844;2022-10-16T09:03:36;12.15;;;2.00;;
54201;SDS011;40108;53.152;5.844;2022-10-16T09:06:16;11.82;;;2.10;;
54201;SDS011;40108;53.152;5.844;2022-10-16T09:23:28;12.70;;;1.85;;
54201;SDS011;40108;53.152;5.844;2022-10-16T09:25:55;6.82;;;1.50;;
54201;SDS011;40108;53.152;5.844;2022-10-16T09:28:23;8.45;;;1.40;;
54201;SDS011;40108;53.152;5.844;2022-10-16T09:30:49;9.52;;;1.58;;
54201;SDS011;40108;53.152;5.844;2022-10-16T09:33:15;6.68;;;2.13;;
54201;SDS011;40108;53.152;5.844;2022-10-16T09:35:47;10.52;;;1.60;;
54201;SDS011;40108;53.152;5.844;2022-10-16T09:40:55;9.00;;;1.58;;
54201;SDS011;40108;53.152;5.844;2022-10-16T09:46:30;7.38;;;1.48;;
54201;SDS011;40108;53.152;5.844;2022-10-16T09:49:17;9.02;;;1.73;;
54201;SDS011;40108;53.152;5.844;2022-10-16T09:51:49;6.13;;;1.60;;
54201;SDS011;40108;53.152;5.844;2022-10-16T09:54:16;5.40;;;1.55;;
54201;SDS011;40108;53.152;5.844;2022-10-16T09:56:43;9.40;;;1.98;;
54201;SDS011;40108;53.152;5.844;2022-10-16T09:59:12;8.32;;;1.75;;
54201;SDS011;40108;53.152;5.844;2022-10-16T10:04:18;15.27;;;2.80;;
54201;SDS011;40108;53.152;5.844;2022-10-16T10:06:45;16.70;;;3.33;;
54201;SDS011;40108;53.152;5.844;2022-10-16T10:09:22;8.90;;;2.70;;
54201;SDS011;40108;53.152;5.844;2022-10-16T10:14:20;15.50;;;3.35;;
54201;SDS011;40108;53.152;5.844;2022-10-16T10:19:36;25.23;;;4.07;;
54201;SDS011;40108;53.152;5.844;2022-10-16T10:27:24;15.93;;;2.78;;
54201;SDS011;40108;53.152;5.844;2022-10-16T10:38:24;18.95;;;3.20;;
54201;SDS011;40108;53.152;5.844;2022-10-16T10:54:59;16.00;;;2.55;;
54201;SDS011;40108;53.152;5.844;2022-10-16T11:05:42;23.20;;;3.00;;
54201;SDS011;40108;53.152;5.844;2022-10-16T11:08:16;14.90;;;2.60;;
54201;SDS011;40108;53.152;5.844;2022-10-16T11:10:54;18.00;;;2.65;;
54201;SDS011;40108;53.152;5.844;2022-10-16T11:16:02;16.95;;;2.53;;
54201;SDS011;40108;53.152;5.844;2022-10-16T11:21:29;12.43;;;2.10;;
54201;SDS011;40108;53.152;5.844;2022-10-16T11:24:03;13.15;;;2.33;;
54201;SDS011;40108;53.152;5.844;2022-10-16T11:26:39;16.83;;;2.80;;
54201;SDS011;40108;53.152;5.844;2022-10-16T11:29:13;12.20;;;2.47;;
54201;SDS011;40108;53.152;5.844;2022-10-16T11:31:46;12.32;;;2.17;;
54201;SDS011;40108;53.152;5.844;2022-10-16T11:34:32;13.52;;;2.55;;
54201;SDS011;40108;53.152;5.844;2022-10-16T11:37:11;18.00;;;2.88;;
54201;SDS011;40108;53.152;5.844;2022-10-16T11:39:42;15.63;;;2.90;;
54201;SDS011;40108;53.152;5.844;2022-10-16T11:42:22;11.30;;;2.30;;
54201;SDS011;40108;53.152;5.844;2022-10-16T11:50:02;16.63;;;2.45;;
54201;SDS011;40108;53.152;5.844;2022-10-16T11:55:36;17.40;;;2.60;;
54201;SDS011;40108;53.152;5.844;2022-10-16T11:58:05;15.55;;;2.33;;
54201;SDS011;40108;53.152;5.844;2022-10-16T12:00:55;16.80;;;2.40;;
54201;SDS011;40108;53.152;5.844;2022-10-16T12:03:30;7.03;;;1.90;;
54201;SDS011;40108;53.152;5.844;2022-10-16T12:09:14;16.98;;;2.42;;
54201;SDS011;40108;53.152;5.844;2022-10-16T12:11:46;12.32;;;1.85;;
54201;SDS011;40108;53.152;5.844;2022-10-16T12:16:50;11.32;;;1.80;;
54201;SDS011;40108;53.152;5.844;2022-10-16T12:19:16;10.60;;;1.85;;
54201;SDS011;40108;53.152;5.844;2022-10-16T12:21:43;9.65;;;2.22;;
54201;SDS011;40108;53.152;5.844;2022-10-16T12:26:56;9.98;;;2.15;;
54201;SDS011;40108;53.152;5.844;2022-10-16T12:29:33;15.02;;;2.03;;
54201;SDS011;40108;53.152;5.844;2022-10-16T12:32:25;14.50;;;1.95;;
54201;SDS011;40108;53.152;5.844;2022-10-16T12:35:02;13.90;;;2.20;;
54201;SDS011;40108;53.152;5.844;2022-10-16T12:37:32;14.27;;;2.22;;
54201;SDS011;40108;53.152;5.844;2022-10-16T12:40:11;12.75;;;2.28;;
54201;SDS011;40108;53.152;5.844;2022-10-16T12:42:58;10.18;;;2.08;;
54201;SDS011;40108;53.152;5.844;2022-10-16T12:45:35;14.05;;;2.17;;
54201;SDS011;40108;53.152;5.844;2022-10-16T12:48:02;10.18;;;2.03;;
54201;SDS011;40108;53.152;5.844;2022-10-16T12:50:31;10.80;;;1.67;;
54201;SDS011;40108;53.152;5.844;2022-10-16T12:53:00;13.85;;;2.10;;
54201;SDS011;40108;53.152;5.844;2022-10-16T12:55:31;11.93;;;2.10;;
54201;SDS011;40108;53.152;5.844;2022-10-16T12:58:09;12.48;;;2.40;;
54201;SDS011;40108;53.152;5.844;2022-10-16T13:00:59;13.75;;;2.33;;
54201;SDS011;40108;53.152;5.844;2022-10-16T13:03:57;20.95;;;2.40;;
54201;SDS011;40108;53.152;5.844;2022-10-16T13:06:45;9.48;;;2.17;;
54201;SDS011;40108;53.152;5.844;2022-10-16T13:18:09;13.38;;;2.20;;
54201;SDS011;40108;53.152;5.844;2022-10-16T13:20:51;14.23;;;2.08;;
54201;SDS011;40108;53.152;5.844;2022-10-16T13:23:25;13.82;;;2.28;;
54201;SDS011;40108;53.152;5.844;2022-10-16T13:28:44;17.55;;;2.50;;
54201;SDS011;40108;53.152;5.844;2022-10-16T13:31:13;13.02;;;1.80;;
54201;SDS011;40108;53.152;5.844;2022-10-16T13:33:49;15.27;;;2.20;;
54201;SDS011;40108;53.152;5.844;2022-10-16T13:36:21;14.63;;;2.65;;
54201;SDS011;40108;53.152;5.844;2022-10-16T13:38:48;11.90;;;2.50;;
54201;SDS011;40108;53.152;5.844;2022-10-16T13:41:24;13.15;;;2.38;;
54201;SDS011;40108;53.152;5.844;2022-10-16T13:43:50;14.57;;;2.15;;
54201;SDS011;40108;53.152;5.844;2022-10-16T13:46:19;13.38;;;2.80;;
54201;SDS011;40108;53.152;5.844;2022-10-16T13:48:57;12.13;;;2.78;;
54201;SDS011;40108;53.152;5.844;2022-10-16T13:51:27;12.02;;;2.58;;
54201;SDS011;40108;53.152;5.844;2022-10-16T13:53:54;14.80;;;2.85;;
54201;SDS011;40108;53.152;5.844;2022-10-16T13:56:22;19.60;;;3.28;;
54201;SDS011;40108;53.152;5.844;2022-10-16T13:59:05;14.07;;;1.98;;
54201;SDS011;40108;53.152;5.844;2022-10-16T14:01:41;15.63;;;2.22;;
54201;SDS011;40108;53.152;5.844;2022-10-16T14:04:09;16.42;;;2.30;;
54201;SDS011;40108;53.152;5.844;2022-10-16T14:06:39;14.05;;;1.88;;
54201;SDS011;40108;53.152;5.844;2022-10-16T14:09:08;15.82;;;2.70;;
54201;SDS011;40108;53.152;5.844;2022-10-16T14:11:36;16.92;;;3.05;;
54201;SDS011;40108;53.152;5.844;2022-10-16T14:14:11;15.38;;;3.20;;
54201;SDS011;40108;53.152;5.844;2022-10-16T14:16:38;10.98;;;2.80;;
54201;SDS011;40108;53.152;5.844;2022-10-16T14:19:13;16.08;;;2.40;;
54201;SDS011;40108;53.152;5.844;2022-10-16T14:21:40;9.57;;;1.85;;
54201;SDS011;40108;53.152;5.844;2022-10-16T14:24:13;12.48;;;1.92;;
54201;SDS011;40108;53.152;5.844;2022-10-16T14:26:47;14.00;;;2.03;;
54201;SDS011;40108;53.152;5.844;2022-10-16T14:29:24;12.20;;;3.15;;
54201;SDS011;40108;53.152;5.844;2022-10-16T14:32:01;13.90;;;2.30;;
54201;SDS011;40108;53.152;5.844;2022-10-16T14:34:35;12.57;;;2.60;;
54201;SDS011;40108;53.152;5.844;2022-10-16T14:39:48;14.32;;;2.53;;
54201;SDS011;40108;53.152;5.844;2022-10-16T14:42:16;17.20;;;2.95;;
54201;SDS011;40108;53.152;5.844;2022-10-16T14:44:44;18.20;;;3.25;;
54201;SDS011;40108;53.152;5.844;2022-10-16T14:47:15;16.73;;;2.45;;
54201;SDS011;40108;53.152;5.844;2022-10-16T14:49:47;13.00;;;2.25;;
54201;SDS011;40108;53.152;5.844;2022-10-16T14:52:12;16.15;;;2.13;;
54201;SDS011;40108;53.152;5.844;2022-10-16T14:54:39;16.80;;;2.50;;
54201;SDS011;40108;53.152;5.844;2022-10-16T14:57:05;13.98;;;2.30;;
54201;SDS011;40108;53.152;5.844;2022-10-16T14:59:45;16.42;;;3.20;;
54201;SDS011;40108;53.152;5.844;2022-10-16T15:04:55;17.52;;;2.28;;
54201;SDS011;40108;53.152;5.844;2022-10-16T15:07:22;13.93;;;2.20;;
54201;SDS011;40108;53.152;5.844;2022-10-16T15:09:48;13.02;;;2.20;;
54201;SDS011;40108;53.152;5.844;2022-10-16T15:12:16;16.35;;;2.00;;
54201;SDS011;40108;53.152;5.844;2022-10-16T15:14:42;16.27;;;2.20;;
54201;SDS011;40108;53.152;5.844;2022-10-16T15:17:09;14.73;;;2.22;;
54201;SDS011;40108;53.152;5.844;2022-10-16T15:19:35;17.30;;;1.83;;
54201;SDS011;40108;53.152;5.844;2022-10-16T15:22:01;18.15;;;2.42;;
54201;SDS011;40108;53.152;5.844;2022-10-16T15:24:27;15.18;;;2.35;;
54201;SDS011;40108;53.152;5.844;2022-10-16T15:26:52;14.82;;;2.53;;
54201;SDS011;40108;53.152;5.844;2022-10-16T15:29:18;17.50;;;2.42;;
54201;SDS011;40108;53.152;5.844;2022-10-16T15:31:44;18.20;;;3.25;;
54201;SDS011;40108;53.152;5.844;2022-10-16T15:34:12;17.98;;;3.65;;
54201;SDS011;40108;53.152;5.844;2022-10-16T15:36:39;17.55;;;3.90;;
54201;SDS011;40108;53.152;5.844;2022-10-16T15:39:08;17.83;;;3.67;;
54201;SDS011;40108;53.152;5.844;2022-10-16T15:41:40;21.70;;;4.75;;
54201;SDS011;40108;53.152;5.844;2022-10-16T15:44:06;19.85;;;3.05;;
54201;SDS011;40108;53.152;5.844;2022-10-16T15:46:32;14.52;;;2.08;;
54201;SDS011;40108;53.152;5.844;2022-10-16T15:48:59;14.93;;;1.95;;
54201;SDS011;40108;53.152;5.844;2022-10-16T15:51:26;14.43;;;2.10;;
54201;SDS011;40108;53.152;5.844;2022-10-16T15:53:55;26.98;;;2.67;;
54201;SDS011;40108;53.152;5.844;2022-10-16T15:56:21;16.88;;;2.30;;
54201;SDS011;40108;53.152;5.844;2022-10-16T15:58:48;10.80;;;2.25;;
54201;SDS011;40108;53.152;5.844;2022-10-16T16:01:13;12.48;;;2.08;;
54201;SDS011;40108;53.152;5.844;2022-10-16T16:03:39;14.10;;;2.15;;
54201;SDS011;40108;53.152;5.844;2022-10-16T16:06:10;20.98;;;2.42;;
54201;SDS011;40108;53.152;5.844;2022-10-16T16:08:37;16.95;;;2.75;;
54201;SDS011;40108;53.152;5.844;2022-10-16T16:11:04;18.35;;;2.92;;
54201;SDS011;40108;53.152;5.844;2022-10-16T16:13:34;13.23;;;2.83;;
54201;SDS011;40108;53.152;5.844;2022-10-16T16:16:05;18.10;;;2.88;;
54201;SDS011;40108;53.152;5.844;2022-10-16T16:18:32;15.63;;;2.88;;
54201;SDS011;40108;53.152;5.844;2022-10-16T16:20:58;14.45;;;2.83;;
54201;SDS011;40108;53.152;5.844;2022-10-16T16:23:23;16.88;;;2.40;;
54201;SDS011;40108;53.152;5.844;2022-10-16T16:28:52;16.30;;;2.70;;
54201;SDS011;40108;53.152;5.844;2022-10-16T16:31:19;19.33;;;2.63;;
54201;SDS011;40108;53.152;5.844;2022-10-16T16:33:46;11.13;;;2.28;;
54201;SDS011;40108;53.152;5.844;2022-10-16T16:36:12;16.00;;;2.95;;
54201;SDS011;40108;53.152;5.844;2022-10-16T16:38:38;17.08;;;2.60;;
54201;SDS011;40108;53.152;5.844;2022-10-16T16:41:10;26.58;;;3.13;;
54201;SDS011;40108;53.152;5.844;2022-10-16T16:43:41;18.05;;;3.33;;
54201;SDS011;40108;53.152;5.844;2022-10-16T16:46:07;22.42;;;3.78;;
54201;SDS011;40108;53.152;5.844;2022-10-16T16:48:33;18.63;;;2.92;;
54201;SDS011;40108;53.152;5.844;2022-10-16T16:51:06;23.75;;;3.40;;
54201;SDS011;40108;53.152;5.844;2022-10-16T16:53:34;18.48;;;2.97;;
54201;SDS011;40108;53.152;5.844;2022-10-16T16:56:01;12.43;;;3.00;;
54201;SDS011;40108;53.152;5.844;2022-10-16T16:58:28;13.63;;;2.53;;
54201;SDS011;40108;53.152;5.844;2022-10-16T17:00:54;17.88;;;2.90;;